Terminal Aerodrome Forecast
Issued by NWS Central Illinois

Home | Current Version | Previous Version | Text Only | Print | Product List | Glossary On
Versions: 1 2 3 4 5 6 7 8 9 10 11 12 13 14 15 16
000
FTUS43 KILX 240800 AAB
TAFPIA
TAF AMD
KPIA 240802Z 2408/2506 20005KT P6SM OVC015
     FM240900 VRB03KT 4SM BR SCT008 OVC012
      TEMPO 2410/2413 2SM BR BKN008
     FM241500 22008KT P6SM SCT025
     FM250000 21005KT P6SM BKN025=

USA.gov is the U.S. government's official web portal to all federal, state and local government web resources and services.